sensor_id;sensor_type;location;lat;lon;timestamp;P1;durP1;ratioP1;P2;durP2;ratioP2
12812;SDS011;6471;50.932;6.934;2023-05-14T00:00:07;5.63;;;5.07;;
12812;SDS011;6471;50.932;6.934;2023-05-14T00:02:34;5.83;;;5.20;;
12812;SDS011;6471;50.932;6.934;2023-05-14T00:05:00;6.00;;;5.37;;
12812;SDS011;6471;50.932;6.934;2023-05-14T00:07:26;7.17;;;5.83;;
12812;SDS011;6471;50.932;6.934;2023-05-14T00:09:54;7.23;;;6.43;;
12812;SDS011;6471;50.932;6.934;2023-05-14T00:12:20;6.83;;;6.00;;
12812;SDS011;6471;50.932;6.934;2023-05-14T00:14:46;6.77;;;6.07;;
12812;SDS011;6471;50.932;6.934;2023-05-14T00:17:13;6.20;;;5.60;;
12812;SDS011;6471;50.932;6.934;2023-05-14T00:19:39;7.63;;;5.90;;
12812;SDS011;6471;50.932;6.934;2023-05-14T00:22:06;8.40;;;6.00;;
12812;SDS011;6471;50.932;6.934;2023-05-14T00:24:33;7.47;;;6.10;;
12812;SDS011;6471;50.932;6.934;2023-05-14T00:26:59;7.63;;;6.07;;
12812;SDS011;6471;50.932;6.934;2023-05-14T00:29:25;6.40;;;5.60;;
12812;SDS011;6471;50.932;6.934;2023-05-14T00:31:51;6.53;;;5.80;;
12812;SDS011;6471;50.932;6.934;2023-05-14T00:34:17;6.00;;;5.40;;
12812;SDS011;6471;50.932;6.934;2023-05-14T00:36:43;6.67;;;5.77;;
12812;SDS011;6471;50.932;6.934;2023-05-14T00:39:09;7.27;;;6.10;;
12812;SDS011;6471;50.932;6.934;2023-05-14T00:41:36;6.77;;;6.07;;
12812;SDS011;6471;50.932;6.934;2023-05-14T00:44:02;6.20;;;5.60;;
12812;SDS011;6471;50.932;6.934;2023-05-14T00:46:28;7.03;;;6.33;;
12812;SDS011;6471;50.932;6.934;2023-05-14T00:48:55;7.33;;;5.70;;
12812;SDS011;6471;50.932;6.934;2023-05-14T00:51:21;6.17;;;5.57;;
12812;SDS011;6471;50.932;6.934;2023-05-14T00:53:47;7.60;;;6.13;;
12812;SDS011;6471;50.932;6.934;2023-05-14T00:56:14;6.33;;;5.63;;
12812;SDS011;6471;50.932;6.934;2023-05-14T00:58:40;6.60;;;5.40;;
12812;SDS011;6471;50.932;6.934;2023-05-14T01:01:07;6.23;;;5.60;;
12812;SDS011;6471;50.932;6.934;2023-05-14T01:03:33;6.70;;;5.40;;
12812;SDS011;6471;50.932;6.934;2023-05-14T01:06:07;6.20;;;5.30;;
12812;SDS011;6471;50.932;6.934;2023-05-14T01:11:29;6.07;;;5.47;;
12812;SDS011;6471;50.932;6.934;2023-05-14T01:16:41;5.63;;;4.97;;
12812;SDS011;6471;50.932;6.934;2023-05-14T01:19:09;6.77;;;5.13;;
12812;SDS011;6471;50.932;6.934;2023-05-14T01:21:39;6.10;;;5.30;;
12812;SDS011;6471;50.932;6.934;2023-05-14T01:24:07;6.23;;;5.27;;
12812;SDS011;6471;50.932;6.934;2023-05-14T01:26:34;7.47;;;5.30;;
12812;SDS011;6471;50.932;6.934;2023-05-14T01:29:02;5.63;;;5.03;;
12812;SDS011;6471;50.932;6.934;2023-05-14T01:31:29;5.97;;;5.23;;
12812;SDS011;6471;50.932;6.934;2023-05-14T01:33:56;6.90;;;5.80;;
12812;SDS011;6471;50.932;6.934;2023-05-14T01:36:24;8.03;;;6.47;;
12812;SDS011;6471;50.932;6.934;2023-05-14T01:38:50;6.23;;;5.43;;
12812;SDS011;6471;50.932;6.934;2023-05-14T01:41:17;6.63;;;5.50;;
12812;SDS011;6471;50.932;6.934;2023-05-14T01:43:44;7.00;;;5.93;;
12812;SDS011;6471;50.932;6.934;2023-05-14T01:46:10;7.00;;;6.30;;
12812;SDS011;6471;50.932;6.934;2023-05-14T01:48:36;6.73;;;6.00;;
12812;SDS011;6471;50.932;6.934;2023-05-14T01:51:02;6.53;;;5.80;;
12812;SDS011;6471;50.932;6.934;2023-05-14T01:53:28;6.43;;;5.70;;
12812;SDS011;6471;50.932;6.934;2023-05-14T01:55:54;7.47;;;6.50;;
12812;SDS011;6471;50.932;6.934;2023-05-14T01:58:20;7.10;;;6.27;;
12812;SDS011;6471;50.932;6.934;2023-05-14T02:00:48;7.47;;;6.67;;
12812;SDS011;6471;50.932;6.934;2023-05-14T02:03:14;7.67;;;6.20;;
12812;SDS011;6471;50.932;6.934;2023-05-14T02:05:40;6.87;;;6.17;;
12812;SDS011;6471;50.932;6.934;2023-05-14T02:08:06;6.53;;;5.93;;
12812;SDS011;6471;50.932;6.934;2023-05-14T02:10:32;6.10;;;5.50;;
12812;SDS011;6471;50.932;6.934;2023-05-14T02:12:58;7.07;;;6.37;;
12812;SDS011;6471;50.932;6.934;2023-05-14T02:15:24;6.40;;;5.70;;
12812;SDS011;6471;50.932;6.934;2023-05-14T02:17:50;6.70;;;5.60;;
12812;SDS011;6471;50.932;6.934;2023-05-14T02:20:16;6.60;;;5.93;;
12812;SDS011;6471;50.932;6.934;2023-05-14T02:22:42;6.90;;;6.00;;
12812;SDS011;6471;50.932;6.934;2023-05-14T02:25:10;6.30;;;5.70;;
12812;SDS011;6471;50.932;6.934;2023-05-14T02:27:36;6.67;;;5.97;;
12812;SDS011;6471;50.932;6.934;2023-05-14T02:30:02;6.87;;;5.97;;
12812;SDS011;6471;50.932;6.934;2023-05-14T02:32:29;6.73;;;6.03;;
12812;SDS011;6471;50.932;6.934;2023-05-14T02:34:55;6.57;;;5.87;;
12812;SDS011;6471;50.932;6.934;2023-05-14T02:37:21;6.27;;;5.67;;
12812;SDS011;6471;50.932;6.934;2023-05-14T02:39:47;6.07;;;5.47;;
12812;SDS011;6471;50.932;6.934;2023-05-14T02:42:13;6.60;;;5.43;;
12812;SDS011;6471;50.932;6.934;2023-05-14T02:44:39;6.53;;;5.70;;
12812;SDS011;6471;50.932;6.934;2023-05-14T02:47:05;6.30;;;5.63;;
12812;SDS011;6471;50.932;6.934;2023-05-14T02:49:31;6.90;;;6.00;;
12812;SDS011;6471;50.932;6.934;2023-05-14T02:51:57;7.40;;;5.90;;
12812;SDS011;6471;50.932;6.934;2023-05-14T02:54:24;8.97;;;6.23;;
12812;SDS011;6471;50.932;6.934;2023-05-14T02:56:50;6.70;;;6.00;;
12812;SDS011;6471;50.932;6.934;2023-05-14T02:59:16;6.80;;;6.10;;
12812;SDS011;6471;50.932;6.934;2023-05-14T03:01:43;7.67;;;6.30;;
12812;SDS011;6471;50.932;6.934;2023-05-14T03:04:09;6.20;;;5.60;;
12812;SDS011;6471;50.932;6.934;2023-05-14T03:06:35;5.80;;;5.20;;
12812;SDS011;6471;50.932;6.934;2023-05-14T03:09:01;5.93;;;5.33;;
12812;SDS011;6471;50.932;6.934;2023-05-14T03:11:27;5.97;;;5.27;;
12812;SDS011;6471;50.932;6.934;2023-05-14T03:13:53;5.17;;;4.67;;
12812;SDS011;6471;50.932;6.934;2023-05-14T03:16:19;5.97;;;5.37;;
12812;SDS011;6471;50.932;6.934;2023-05-14T03:18:45;4.90;;;4.40;;
12812;SDS011;6471;50.932;6.934;2023-05-14T03:21:11;5.43;;;4.93;;
12812;SDS011;6471;50.932;6.934;2023-05-14T03:23:37;4.93;;;4.43;;
12812;SDS011;6471;50.932;6.934;2023-05-14T03:26:03;5.33;;;4.50;;
12812;SDS011;6471;50.932;6.934;2023-05-14T03:28:30;5.93;;;4.63;;
12812;SDS011;6471;50.932;6.934;2023-05-14T03:30:56;5.57;;;4.70;;
12812;SDS011;6471;50.932;6.934;2023-05-14T03:33:22;6.30;;;4.70;;
12812;SDS011;6471;50.932;6.934;2023-05-14T03:35:48;5.17;;;4.67;;
12812;SDS011;6471;50.932;6.934;2023-05-14T03:38:15;5.77;;;5.10;;
12812;SDS011;6471;50.932;6.934;2023-05-14T03:40:42;5.70;;;4.90;;
12812;SDS011;6471;50.932;6.934;2023-05-14T03:43:08;5.23;;;4.70;;
12812;SDS011;6471;50.932;6.934;2023-05-14T03:45:35;5.87;;;4.63;;
12812;SDS011;6471;50.932;6.934;2023-05-14T03:48:01;5.70;;;5.03;;
12812;SDS011;6471;50.932;6.934;2023-05-14T03:50:27;5.77;;;4.87;;
12812;SDS011;6471;50.932;6.934;2023-05-14T03:52:53;5.73;;;4.90;;
12812;SDS011;6471;50.932;6.934;2023-05-14T03:55:20;5.43;;;4.90;;
12812;SDS011;6471;50.932;6.934;2023-05-14T03:57:46;5.30;;;4.70;;
12812;SDS011;6471;50.932;6.934;2023-05-14T04:00:12;5.67;;;4.80;;
12812;SDS011;6471;50.932;6.934;2023-05-14T04:02:39;5.53;;;4.80;;
12812;SDS011;6471;50.932;6.934;2023-05-14T04:05:05;5.40;;;4.80;;
12812;SDS011;6471;50.932;6.934;2023-05-14T04:07:31;4.87;;;4.37;;
12812;SDS011;6471;50.932;6.934;2023-05-14T04:09:57;5.00;;;4.50;;
12812;SDS011;6471;50.932;6.934;2023-05-14T04:12:24;5.67;;;4.87;;
12812;SDS011;6471;50.932;6.934;2023-05-14T04:14:51;5.23;;;4.67;;
12812;SDS011;6471;50.932;6.934;2023-05-14T04:17:17;5.20;;;4.63;;
12812;SDS011;6471;50.932;6.934;2023-05-14T04:19:43;5.10;;;4.60;;
12812;SDS011;6471;50.932;6.934;2023-05-14T04:22:09;5.67;;;4.83;;
12812;SDS011;6471;50.932;6.934;2023-05-14T04:24:35;5.93;;;4.80;;
12812;SDS011;6471;50.932;6.934;2023-05-14T04:27:01;5.60;;;4.60;;
12812;SDS011;6471;50.932;6.934;2023-05-14T04:29:27;4.63;;;4.20;;
12812;SDS011;6471;50.932;6.934;2023-05-14T04:31:53;4.90;;;4.27;;
12812;SDS011;6471;50.932;6.934;2023-05-14T04:34:19;5.10;;;4.60;;
12812;SDS011;6471;50.932;6.934;2023-05-14T04:36:46;5.20;;;4.70;;
12812;SDS011;6471;50.932;6.934;2023-05-14T04:39:12;5.00;;;4.50;;
12812;SDS011;6471;50.932;6.934;2023-05-14T04:41:39;5.80;;;4.70;;
12812;SDS011;6471;50.932;6.934;2023-05-14T04:44:05;5.03;;;4.53;;
12812;SDS011;6471;50.932;6.934;2023-05-14T04:46:31;4.83;;;4.33;;
12812;SDS011;6471;50.932;6.934;2023-05-14T04:48:57;5.10;;;4.50;;
12812;SDS011;6471;50.932;6.934;2023-05-14T04:51:23;5.30;;;4.80;;
12812;SDS011;6471;50.932;6.934;2023-05-14T04:53:50;5.63;;;5.03;;
12812;SDS011;6471;50.932;6.934;2023-05-14T04:56:16;4.90;;;4.47;;
12812;SDS011;6471;50.932;6.934;2023-05-14T04:58:42;5.07;;;4.57;;
12812;SDS011;6471;50.932;6.934;2023-05-14T05:01:08;5.00;;;4.50;;
12812;SDS011;6471;50.932;6.934;2023-05-14T05:03:34;5.87;;;4.77;;
12812;SDS011;6471;50.932;6.934;2023-05-14T05:06:00;5.03;;;4.50;;
12812;SDS011;6471;50.932;6.934;2023-05-14T05:08:26;5.70;;;5.10;;
12812;SDS011;6471;50.932;6.934;2023-05-14T05:10:52;6.53;;;5.10;;
12812;SDS011;6471;50.932;6.934;2023-05-14T05:13:18;4.73;;;4.30;;
12812;SDS011;6471;50.932;6.934;2023-05-14T05:15:44;6.10;;;4.90;;
12812;SDS011;6471;50.932;6.934;2023-05-14T05:18:10;5.00;;;4.60;;
12812;SDS011;6471;50.932;6.934;2023-05-14T05:20:38;5.97;;;5.37;;
12812;SDS011;6471;50.932;6.934;2023-05-14T05:23:04;6.07;;;5.47;;
12812;SDS011;6471;50.932;6.934;2023-05-14T05:25:30;5.43;;;4.83;;
12812;SDS011;6471;50.932;6.934;2023-05-14T05:27:57;5.53;;;5.03;;
12812;SDS011;6471;50.932;6.934;2023-05-14T05:30:23;5.57;;;4.80;;
12812;SDS011;6471;50.932;6.934;2023-05-14T05:32:49;5.30;;;4.80;;
12812;SDS011;6471;50.932;6.934;2023-05-14T05:35:15;6.67;;;4.90;;
12812;SDS011;6471;50.932;6.934;2023-05-14T05:37:41;5.13;;;4.63;;
12812;SDS011;6471;50.932;6.934;2023-05-14T05:40:09;4.90;;;4.40;;
12812;SDS011;6471;50.932;6.934;2023-05-14T05:42:35;4.70;;;4.30;;
12812;SDS011;6471;50.932;6.934;2023-05-14T05:45:01;5.13;;;4.63;;
12812;SDS011;6471;50.932;6.934;2023-05-14T05:47:27;4.90;;;4.43;;
12812;SDS011;6471;50.932;6.934;2023-05-14T05:49:54;4.50;;;4.10;;
12812;SDS011;6471;50.932;6.934;2023-05-14T05:52:20;4.50;;;4.10;;
12812;SDS011;6471;50.932;6.934;2023-05-14T05:54:46;4.83;;;4.40;;
12812;SDS011;6471;50.932;6.934;2023-05-14T05:57:12;5.10;;;4.60;;
12812;SDS011;6471;50.932;6.934;2023-05-14T05:59:38;5.90;;;4.43;;
12812;SDS011;6471;50.932;6.934;2023-05-14T06:02:04;5.87;;;5.27;;
12812;SDS011;6471;50.932;6.934;2023-05-14T06:04:30;7.43;;;5.70;;
12812;SDS011;6471;50.932;6.934;2023-05-14T06:06:56;5.50;;;5.00;;
12812;SDS011;6471;50.932;6.934;2023-05-14T06:09:22;7.03;;;5.63;;
12812;SDS011;6471;50.932;6.934;2023-05-14T06:11:48;6.37;;;5.47;;
12812;SDS011;6471;50.932;6.934;2023-05-14T06:14:14;7.20;;;6.50;;
12812;SDS011;6471;50.932;6.934;2023-05-14T06:16:40;6.83;;;5.83;;
12812;SDS011;6471;50.932;6.934;2023-05-14T06:19:06;7.63;;;6.07;;
12812;SDS011;6471;50.932;6.934;2023-05-14T06:21:32;6.30;;;5.70;;
12812;SDS011;6471;50.932;6.934;2023-05-14T06:23:59;8.27;;;7.37;;
12812;SDS011;6471;50.932;6.934;2023-05-14T06:26:25;9.00;;;7.70;;
12812;SDS011;6471;50.932;6.934;2023-05-14T06:28:51;8.03;;;7.23;;
12812;SDS011;6471;50.932;6.934;2023-05-14T06:31:17;8.13;;;7.33;;
12812;SDS011;6471;50.932;6.934;2023-05-14T06:33:43;7.60;;;6.80;;
12812;SDS011;6471;50.932;6.934;2023-05-14T06:36:09;6.30;;;5.70;;
12812;SDS011;6471;50.932;6.934;2023-05-14T06:38:35;6.70;;;6.10;;
12812;SDS011;6471;50.932;6.934;2023-05-14T06:41:02;6.67;;;6.07;;
12812;SDS011;6471;50.932;6.934;2023-05-14T06:43:28;7.03;;;6.13;;
12812;SDS011;6471;50.932;6.934;2023-05-14T06:45:54;8.33;;;7.07;;
12812;SDS011;6471;50.932;6.934;2023-05-14T06:48:20;7.53;;;6.73;;
12812;SDS011;6471;50.932;6.934;2023-05-14T06:50:46;7.97;;;7.17;;
12812;SDS011;6471;50.932;6.934;2023-05-14T06:53:13;7.23;;;6.53;;
12812;SDS011;6471;50.932;6.934;2023-05-14T06:55:39;8.00;;;7.20;;
12812;SDS011;6471;50.932;6.934;2023-05-14T06:58:05;7.10;;;6.40;;
12812;SDS011;6471;50.932;6.934;2023-05-14T07:00:32;9.10;;;7.93;;
12812;SDS011;6471;50.932;6.934;2023-05-14T07:02:58;10.43;;;8.30;;
12812;SDS011;6471;50.932;6.934;2023-05-14T07:05:24;7.07;;;6.37;;
12812;SDS011;6471;50.932;6.934;2023-05-14T07:07:50;7.57;;;6.53;;
12812;SDS011;6471;50.932;6.934;2023-05-14T07:10:16;7.97;;;6.30;;
12812;SDS011;6471;50.932;6.934;2023-05-14T07:12:42;5.97;;;5.33;;
12812;SDS011;6471;50.932;6.934;2023-05-14T07:15:09;7.77;;;5.70;;
12812;SDS011;6471;50.932;6.934;2023-05-14T07:17:36;5.50;;;5.00;;
12812;SDS011;6471;50.932;6.934;2023-05-14T07:20:02;6.60;;;5.13;;
12812;SDS011;6471;50.932;6.934;2023-05-14T07:22:28;5.80;;;5.20;;
12812;SDS011;6471;50.932;6.934;2023-05-14T07:24:54;4.77;;;4.30;;
12812;SDS011;6471;50.932;6.934;2023-05-14T07:27:20;4.93;;;4.43;;
12812;SDS011;6471;50.932;6.934;2023-05-14T07:29:46;5.93;;;4.77;;
12812;SDS011;6471;50.932;6.934;2023-05-14T07:32:13;4.87;;;4.37;;
12812;SDS011;6471;50.932;6.934;2023-05-14T07:34:39;6.37;;;4.57;;
12812;SDS011;6471;50.932;6.934;2023-05-14T07:37:05;4.70;;;4.20;;
12812;SDS011;6471;50.932;6.934;2023-05-14T07:39:31;4.77;;;4.30;;
12812;SDS011;6471;50.932;6.934;2023-05-14T07:41:57;5.90;;;4.80;;
12812;SDS011;6471;50.932;6.934;2023-05-14T07:44:23;5.00;;;4.50;;
12812;SDS011;6471;50.932;6.934;2023-05-14T07:46:49;5.07;;;4.40;;
12812;SDS011;6471;50.932;6.934;2023-05-14T07:49:15;4.97;;;4.43;;
12812;SDS011;6471;50.932;6.934;2023-05-14T07:51:41;4.50;;;4.00;;
12812;SDS011;6471;50.932;6.934;2023-05-14T07:54:07;4.40;;;4.00;;
12812;SDS011;6471;50.932;6.934;2023-05-14T07:56:35;4.10;;;3.60;;
12812;SDS011;6471;50.932;6.934;2023-05-14T07:59:01;4.03;;;3.63;;
12812;SDS011;6471;50.932;6.934;2023-05-14T08:01:27;5.47;;;4.90;;
12812;SDS011;6471;50.932;6.934;2023-05-14T08:03:53;4.43;;;4.03;;
12812;SDS011;6471;50.932;6.934;2023-05-14T08:06:19;4.20;;;3.67;;
12812;SDS011;6471;50.932;6.934;2023-05-14T08:08:46;6.32;;;3.47;;
12812;SDS011;6471;50.932;6.934;2023-05-14T08:11:12;3.42;;;3.13;;
12812;SDS011;6471;50.932;6.934;2023-05-14T08:13:38;3.67;;;3.38;;
12812;SDS011;6471;50.932;6.934;2023-05-14T08:16:05;3.33;;;3.03;;
12812;SDS011;6471;50.932;6.934;2023-05-14T08:18:32;3.92;;;3.20;;
12812;SDS011;6471;50.932;6.934;2023-05-14T08:20:58;2.95;;;2.58;;
12812;SDS011;6471;50.932;6.934;2023-05-14T08:23:24;2.90;;;2.60;;
12812;SDS011;6471;50.932;6.934;2023-05-14T08:25:50;2.90;;;2.67;;
12812;SDS011;6471;50.932;6.934;2023-05-14T08:28:16;2.72;;;2.53;;
12812;SDS011;6471;50.932;6.934;2023-05-14T08:30:42;3.00;;;2.40;;
12812;SDS011;6471;50.932;6.934;2023-05-14T08:33:08;3.10;;;2.70;;
12812;SDS011;6471;50.932;6.934;2023-05-14T08:35:34;2.97;;;2.40;;
12812;SDS011;6471;50.932;6.934;2023-05-14T08:38:00;2.90;;;2.70;;
12812;SDS011;6471;50.932;6.934;2023-05-14T08:40:26;2.50;;;2.30;;
12812;SDS011;6471;50.932;6.934;2023-05-14T08:42:52;2.60;;;2.40;;
12812;SDS011;6471;50.932;6.934;2023-05-14T08:45:19;4.15;;;2.50;;
12812;SDS011;6471;50.932;6.934;2023-05-14T08:47:46;2.78;;;2.25;;
12812;SDS011;6471;50.932;6.934;2023-05-14T08:50:16;2.38;;;2.10;;
12812;SDS011;6471;50.932;6.934;2023-05-14T08:52:43;2.83;;;2.28;;
12812;SDS011;6471;50.932;6.934;2023-05-14T08:55:10;2.85;;;2.40;;
12812;SDS011;6471;50.932;6.934;2023-05-14T08:57:37;2.42;;;2.22;;
12812;SDS011;6471;50.932;6.934;2023-05-14T09:00:03;2.72;;;2.53;;
12812;SDS011;6471;50.932;6.934;2023-05-14T09:02:32;2.60;;;2.40;;
12812;SDS011;6471;50.932;6.934;2023-05-14T09:04:59;2.50;;;2.30;;
12812;SDS011;6471;50.932;6.934;2023-05-14T09:07:25;4.05;;;2.70;;
12812;SDS011;6471;50.932;6.934;2023-05-14T09:09:52;2.70;;;2.50;;
12812;SDS011;6471;50.932;6.934;2023-05-14T09:12:18;2.92;;;2.63;;
12812;SDS011;6471;50.932;6.934;2023-05-14T09:14:44;2.40;;;2.20;;
12812;SDS011;6471;50.932;6.934;2023-05-14T09:17:11;3.53;;;2.53;;
12812;SDS011;6471;50.932;6.934;2023-05-14T09:19:40;2.83;;;2.63;;
12812;SDS011;6471;50.932;6.934;2023-05-14T09:22:13;2.90;;;2.70;;
12812;SDS011;6471;50.932;6.934;2023-05-14T09:24:39;3.50;;;3.07;;
12812;SDS011;6471;50.932;6.934;2023-05-14T09:27:05;3.00;;;2.70;;
12812;SDS011;6471;50.932;6.934;2023-05-14T09:29:32;3.10;;;2.80;;
12812;SDS011;6471;50.932;6.934;2023-05-14T09:31:58;2.90;;;2.60;;
12812;SDS011;6471;50.932;6.934;2023-05-14T09:34:30;3.60;;;3.30;;
12812;SDS011;6471;50.932;6.934;2023-05-14T09:36:57;3.50;;;3.20;;
12812;SDS011;6471;50.932;6.934;2023-05-14T09:39:24;3.23;;;2.80;;
12812;SDS011;6471;50.932;6.934;2023-05-14T09:41:50;2.90;;;2.70;;
12812;SDS011;6471;50.932;6.934;2023-05-14T09:44:17;3.17;;;2.87;;
12812;SDS011;6471;50.932;6.934;2023-05-14T09:46:44;3.40;;;2.87;;
12812;SDS011;6471;50.932;6.934;2023-05-14T09:49:10;3.20;;;2.90;;
12812;SDS011;6471;50.932;6.934;2023-05-14T09:51:36;3.10;;;2.73;;
12812;SDS011;6471;50.932;6.934;2023-05-14T09:54:03;3.37;;;2.40;;
12812;SDS011;6471;50.932;6.934;2023-05-14T09:56:30;3.43;;;2.90;;
12812;SDS011;6471;50.932;6.934;2023-05-14T09:58:56;3.17;;;2.87;;
12812;SDS011;6471;50.932;6.934;2023-05-14T10:01:22;2.80;;;2.60;;
12812;SDS011;6471;50.932;6.934;2023-05-14T10:03:49;2.60;;;2.40;;
12812;SDS011;6471;50.932;6.934;2023-05-14T10:06:15;3.40;;;3.03;;
12812;SDS011;6471;50.932;6.934;2023-05-14T10:08:44;3.43;;;3.13;;
12812;SDS011;6471;50.932;6.934;2023-05-14T10:11:16;3.37;;;2.83;;
12812;SDS011;6471;50.932;6.934;2023-05-14T10:13:51;3.10;;;2.80;;
12812;SDS011;6471;50.932;6.934;2023-05-14T10:16:23;3.00;;;2.70;;
12812;SDS011;6471;50.932;6.934;2023-05-14T10:18:54;3.20;;;2.90;;
12812;SDS011;6471;50.932;6.934;2023-05-14T10:21:21;2.90;;;2.60;;
12812;SDS011;6471;50.932;6.934;2023-05-14T10:23:48;2.93;;;2.70;;
12812;SDS011;6471;50.932;6.934;2023-05-14T10:26:15;3.27;;;2.97;;
12812;SDS011;6471;50.932;6.934;2023-05-14T10:28:41;4.63;;;3.73;;
12812;SDS011;6471;50.932;6.934;2023-05-14T10:31:08;4.13;;;3.73;;
12812;SDS011;6471;50.932;6.934;2023-05-14T10:33:47;4.80;;;3.97;;
12812;SDS011;6471;50.932;6.934;2023-05-14T10:36:15;4.03;;;3.60;;
12812;SDS011;6471;50.932;6.934;2023-05-14T10:38:41;5.07;;;4.50;;
12812;SDS011;6471;50.932;6.934;2023-05-14T10:41:11;6.20;;;4.63;;
12812;SDS011;6471;50.932;6.934;2023-05-14T10:43:39;8.00;;;5.53;;
12812;SDS011;6471;50.932;6.934;2023-05-14T10:46:06;5.70;;;4.10;;
12812;SDS011;6471;50.932;6.934;2023-05-14T10:48:35;4.07;;;3.60;;
12812;SDS011;6471;50.932;6.934;2023-05-14T10:51:06;4.57;;;4.00;;
12812;SDS011;6471;50.932;6.934;2023-05-14T10:53:33;6.47;;;3.80;;
12812;SDS011;6471;50.932;6.934;2023-05-14T10:56:06;3.93;;;3.57;;
12812;SDS011;6471;50.932;6.934;2023-05-14T10:58:39;4.23;;;3.70;;
12812;SDS011;6471;50.932;6.934;2023-05-14T11:01:07;5.30;;;3.87;;
12812;SDS011;6471;50.932;6.934;2023-05-14T11:03:41;6.17;;;4.90;;
12812;SDS011;6471;50.932;6.934;2023-05-14T11:06:08;4.43;;;4.03;;
12812;SDS011;6471;50.932;6.934;2023-05-14T11:08:35;4.83;;;4.33;;
12812;SDS011;6471;50.932;6.934;2023-05-14T11:11:01;4.97;;;4.47;;
12812;SDS011;6471;50.932;6.934;2023-05-14T11:13:38;4.60;;;4.10;;
12812;SDS011;6471;50.932;6.934;2023-05-14T11:16:04;6.13;;;4.33;;
12812;SDS011;6471;50.932;6.934;2023-05-14T11:18:31;4.23;;;3.60;;
12812;SDS011;6471;50.932;6.934;2023-05-14T11:20:58;5.00;;;3.57;;
12812;SDS011;6471;50.932;6.934;2023-05-14T11:23:24;4.20;;;3.40;;
12812;SDS011;6471;50.932;6.934;2023-05-14T11:25:53;4.40;;;3.70;;
12812;SDS011;6471;50.932;6.934;2023-05-14T11:28:22;5.03;;;3.73;;
12812;SDS011;6471;50.932;6.934;2023-05-14T11:30:49;5.67;;;4.83;;
12812;SDS011;6471;50.932;6.934;2023-05-14T11:33:15;5.53;;;4.70;;
12812;SDS011;6471;50.932;6.934;2023-05-14T11:35:41;8.83;;;5.60;;
12812;SDS011;6471;50.932;6.934;2023-05-14T11:38:27;6.63;;;5.57;;
12812;SDS011;6471;50.932;6.934;2023-05-14T11:40:54;5.60;;;4.53;;
12812;SDS011;6471;50.932;6.934;2023-05-14T11:43:20;6.03;;;4.53;;
12812;SDS011;6471;50.932;6.934;2023-05-14T11:45:52;5.70;;;4.47;;
12812;SDS011;6471;50.932;6.934;2023-05-14T11:48:19;5.13;;;4.53;;
12812;SDS011;6471;50.932;6.934;2023-05-14T11:50:49;7.37;;;5.27;;
12812;SDS011;6471;50.932;6.934;2023-05-14T11:53:19;5.27;;;4.43;;
12812;SDS011;6471;50.932;6.934;2023-05-14T11:55:45;5.60;;;4.53;;
12812;SDS011;6471;50.932;6.934;2023-05-14T11:58:12;5.20;;;4.70;;
12812;SDS011;6471;50.932;6.934;2023-05-14T12:00:38;7.10;;;5.00;;
12812;SDS011;6471;50.932;6.934;2023-05-14T12:03:05;5.47;;;4.70;;
12812;SDS011;6471;50.932;6.934;2023-05-14T12:05:31;4.80;;;4.30;;
12812;SDS011;6471;50.932;6.934;2023-05-14T12:07:57;7.30;;;5.63;;
12812;SDS011;6471;50.932;6.934;2023-05-14T12:10:23;5.77;;;4.97;;
12812;SDS011;6471;50.932;6.934;2023-05-14T12:12:49;5.80;;;5.20;;
12812;SDS011;6471;50.932;6.934;2023-05-14T12:15:15;5.43;;;4.73;;
12812;SDS011;6471;50.932;6.934;2023-05-14T12:17:41;6.50;;;4.73;;
12812;SDS011;6471;50.932;6.934;2023-05-14T12:20:10;6.10;;;4.87;;
12812;SDS011;6471;50.932;6.934;2023-05-14T12:22:36;5.97;;;4.83;;
12812;SDS011;6471;50.932;6.934;2023-05-14T12:25:03;6.60;;;5.90;;
12812;SDS011;6471;50.932;6.934;2023-05-14T12:27:30;6.33;;;4.40;;
12812;SDS011;6471;50.932;6.934;2023-05-14T12:30:00;5.60;;;4.60;;
12812;SDS011;6471;50.932;6.934;2023-05-14T12:32:27;5.30;;;3.90;;
12812;SDS011;6471;50.932;6.934;2023-05-14T12:34:53;4.27;;;3.87;;
12812;SDS011;6471;50.932;6.934;2023-05-14T12:37:19;5.10;;;4.00;;
12812;SDS011;6471;50.932;6.934;2023-05-14T12:39:45;5.03;;;4.40;;
12812;SDS011;6471;50.932;6.934;2023-05-14T12:42:13;4.43;;;4.00;;
12812;SDS011;6471;50.932;6.934;2023-05-14T12:44:39;3.90;;;3.20;;
12812;SDS011;6471;50.932;6.934;2023-05-14T12:47:07;4.50;;;3.27;;
12812;SDS011;6471;50.932;6.934;2023-05-14T12:49:33;3.57;;;3.10;;
12812;SDS011;6471;50.932;6.934;2023-05-14T12:52:00;4.53;;;3.10;;
12812;SDS011;6471;50.932;6.934;2023-05-14T12:54:26;3.43;;;3.00;;
12812;SDS011;6471;50.932;6.934;2023-05-14T12:56:52;3.43;;;2.70;;
12812;SDS011;6471;50.932;6.934;2023-05-14T12:59:18;5.30;;;3.20;;
12812;SDS011;6471;50.932;6.934;2023-05-14T13:01:45;4.93;;;3.07;;
12812;SDS011;6471;50.932;6.934;2023-05-14T13:04:11;2.80;;;2.60;;
12812;SDS011;6471;50.932;6.934;2023-05-14T13:06:37;2.50;;;2.30;;
12812;SDS011;6471;50.932;6.934;2023-05-14T13:09:04;3.60;;;2.60;;
12812;SDS011;6471;50.932;6.934;2023-05-14T13:11:30;3.60;;;2.63;;
12812;SDS011;6471;50.932;6.934;2023-05-14T13:13:57;3.77;;;2.70;;
12812;SDS011;6471;50.932;6.934;2023-05-14T13:16:26;2.73;;;2.53;;
12812;SDS011;6471;50.932;6.934;2023-05-14T13:18:53;4.10;;;2.53;;
12812;SDS011;6471;50.932;6.934;2023-05-14T13:21:19;2.77;;;2.57;;
12812;SDS011;6471;50.932;6.934;2023-05-14T13:23:46;3.70;;;2.80;;
12812;SDS011;6471;50.932;6.934;2023-05-14T13:26:12;2.70;;;2.50;;
12812;SDS011;6471;50.932;6.934;2023-05-14T13:28:38;3.73;;;2.50;;
12812;SDS011;6471;50.932;6.934;2023-05-14T13:33:31;3.10;;;2.80;;
12812;SDS011;6471;50.932;6.934;2023-05-14T13:35:57;5.27;;;3.13;;
12812;SDS011;6471;50.932;6.934;2023-05-14T13:38:23;3.63;;;2.90;;
12812;SDS011;6471;50.932;6.934;2023-05-14T13:40:49;3.73;;;2.67;;
12812;SDS011;6471;50.932;6.934;2023-05-14T13:43:16;3.90;;;3.00;;
12812;SDS011;6471;50.932;6.934;2023-05-14T13:45:42;4.57;;;3.00;;
12812;SDS011;6471;50.932;6.934;2023-05-14T13:48:08;4.53;;;2.50;;
12812;SDS011;6471;50.932;6.934;2023-05-14T13:50:34;4.20;;;2.63;;
12812;SDS011;6471;50.932;6.934;2023-05-14T13:53:02;2.93;;;2.53;;
12812;SDS011;6471;50.932;6.934;2023-05-14T13:55:29;3.23;;;2.60;;
12812;SDS011;6471;50.932;6.934;2023-05-14T13:57:55;3.03;;;2.60;;
12812;SDS011;6471;50.932;6.934;2023-05-14T14:00:23;2.70;;;2.50;;
12812;SDS011;6471;50.932;6.934;2023-05-14T14:02:51;3.80;;;2.80;;
12812;SDS011;6471;50.932;6.934;2023-05-14T14:05:17;3.07;;;2.60;;
12812;SDS011;6471;50.932;6.934;2023-05-14T14:07:43;3.33;;;2.80;;
12812;SDS011;6471;50.932;6.934;2023-05-14T14:10:09;3.60;;;2.90;;
12812;SDS011;6471;50.932;6.934;2023-05-14T14:12:35;3.17;;;2.80;;
12812;SDS011;6471;50.932;6.934;2023-05-14T14:15:01;4.83;;;2.93;;
12812;SDS011;6471;50.932;6.934;2023-05-14T14:17:28;3.23;;;2.80;;
12812;SDS011;6471;50.932;6.934;2023-05-14T14:19:54;3.23;;;2.90;;
12812;SDS011;6471;50.932;6.934;2023-05-14T14:22:20;4.17;;;2.90;;
12812;SDS011;6471;50.932;6.934;2023-05-14T14:24:46;3.17;;;2.70;;
12812;SDS011;6471;50.932;6.934;2023-05-14T14:27:12;3.07;;;2.77;;
12812;SDS011;6471;50.932;6.934;2023-05-14T14:29:56;3.47;;;2.77;;
12812;SDS011;6471;50.932;6.934;2023-05-14T14:32:22;2.87;;;2.57;;
12812;SDS011;6471;50.932;6.934;2023-05-14T14:34:48;3.20;;;2.67;;
12812;SDS011;6471;50.932;6.934;2023-05-14T14:37:15;3.10;;;2.77;;
12812;SDS011;6471;50.932;6.934;2023-05-14T14:39:41;3.27;;;2.87;;
12812;SDS011;6471;50.932;6.934;2023-05-14T14:42:07;3.03;;;2.70;;
12812;SDS011;6471;50.932;6.934;2023-05-14T14:44:33;2.57;;;2.37;;
12812;SDS011;6471;50.932;6.934;2023-05-14T14:46:59;2.80;;;2.60;;
12812;SDS011;6471;50.932;6.934;2023-05-14T14:49:25;2.93;;;2.60;;
12812;SDS011;6471;50.932;6.934;2023-05-14T14:51:52;2.93;;;2.60;;
12812;SDS011;6471;50.932;6.934;2023-05-14T14:54:18;4.63;;;2.53;;
12812;SDS011;6471;50.932;6.934;2023-05-14T14:56:44;3.53;;;2.60;;
12812;SDS011;6471;50.932;6.934;2023-05-14T14:59:13;2.43;;;2.23;;
12812;SDS011;6471;50.932;6.934;2023-05-14T15:01:39;3.03;;;2.50;;
12812;SDS011;6471;50.932;6.934;2023-05-14T15:04:05;3.20;;;2.47;;